Petronila, Texas
Current Conditions -  °F | °C
As of 4:55 PM on Thursday 23 Oct 2014 (Local Time) from KRBO Reporting Station
Clear Clear  
Wind Chill: 82°   Ceiling: Unl
Heat Index: 83°   Visibility: 10mi
Dew Point: 62°   Wind: 6mph
Humidity: 49%   Direction: 80°E
Pressure: 30.04"   Gusts: NA
Location:  27.7757°N, 97.7554°W
Report Text: KRBO 232155Z AUTO 08005KT 10SM CLR 28/17 A3004 RMK AO2 T02800165
Loading
Personal Weather Stations






























Interactive Weather Map
Tropical Storm Tracking
New forecast layout! Learn more

10-Day Weather Forecast

Advertisements
Track Severe Weather on mobile